sensor_id;sensor_type;location;lat;lon;timestamp;P1;durP1;ratioP1;P2;durP2;ratioP2
63778;SDS011;49923;55.970;37.516;2022-08-02T00:01:42;25.98;;;15.02;;
63778;SDS011;49923;55.970;37.516;2022-08-02T00:04:09;23.42;;;15.38;;
63778;SDS011;49923;55.970;37.516;2022-08-02T00:06:35;22.63;;;14.27;;
63778;SDS011;49923;55.970;37.516;2022-08-02T00:09:02;25.05;;;16.40;;
63778;SDS011;49923;55.970;37.516;2022-08-02T00:11:29;27.27;;;15.38;;
63778;SDS011;49923;55.970;37.516;2022-08-02T00:13:55;29.60;;;16.15;;
63778;SDS011;49923;55.970;37.516;2022-08-02T00:16:21;26.60;;;16.88;;
63778;SDS011;49923;55.970;37.516;2022-08-02T00:18:48;28.38;;;16.30;;
63778;SDS011;49923;55.970;37.516;2022-08-02T00:21:14;24.98;;;16.80;;
63778;SDS011;49923;55.970;37.516;2022-08-02T00:23:40;25.83;;;17.23;;
63778;SDS011;49923;55.970;37.516;2022-08-02T00:26:06;25.27;;;16.35;;
63778;SDS011;49923;55.970;37.516;2022-08-02T00:28:32;25.55;;;17.35;;
63778;SDS011;49923;55.970;37.516;2022-08-02T00:30:58;26.10;;;17.98;;
63778;SDS011;49923;55.970;37.516;2022-08-02T00:33:24;28.33;;;17.85;;
63778;SDS011;49923;55.970;37.516;2022-08-02T00:35:51;31.08;;;17.33;;
63778;SDS011;49923;55.970;37.516;2022-08-02T00:38:18;26.83;;;15.68;;
63778;SDS011;49923;55.970;37.516;2022-08-02T00:40:47;27.00;;;17.60;;
63778;SDS011;49923;55.970;37.516;2022-08-02T00:43:14;27.08;;;16.05;;
63778;SDS011;49923;55.970;37.516;2022-08-02T00:45:40;20.80;;;15.10;;
63778;SDS011;49923;55.970;37.516;2022-08-02T00:48:07;22.65;;;14.27;;
63778;SDS011;49923;55.970;37.516;2022-08-02T00:50:34;21.00;;;15.63;;
63778;SDS011;49923;55.970;37.516;2022-08-02T00:53:01;19.52;;;13.77;;
63778;SDS011;49923;55.970;37.516;2022-08-02T00:55:28;26.77;;;17.17;;
63778;SDS011;49923;55.970;37.516;2022-08-02T00:57:55;28.52;;;16.90;;
63778;SDS011;49923;55.970;37.516;2022-08-02T01:00:21;24.45;;;16.90;;
63778;SDS011;49923;55.970;37.516;2022-08-02T01:02:47;26.50;;;16.00;;
63778;SDS011;49923;55.970;37.516;2022-08-02T01:05:13;28.25;;;16.40;;
63778;SDS011;49923;55.970;37.516;2022-08-02T01:07:40;25.52;;;17.00;;
63778;SDS011;49923;55.970;37.516;2022-08-02T01:10:06;26.05;;;17.20;;
63778;SDS011;49923;55.970;37.516;2022-08-02T01:12:33;24.52;;;16.38;;
63778;SDS011;49923;55.970;37.516;2022-08-02T01:15:00;25.13;;;16.20;;
63778;SDS011;49923;55.970;37.516;2022-08-02T01:23:13;26.58;;;15.95;;
63778;SDS011;49923;55.970;37.516;2022-08-02T01:31:24;24.15;;;17.63;;
63778;SDS011;49923;55.970;37.516;2022-08-02T01:34:00;25.58;;;17.05;;
63778;SDS011;49923;55.970;37.516;2022-08-02T01:36:33;25.45;;;16.30;;
63778;SDS011;49923;55.970;37.516;2022-08-02T01:39:03;22.88;;;16.25;;
63778;SDS011;49923;55.970;37.516;2022-08-02T01:41:33;26.92;;;16.98;;
63778;SDS011;49923;55.970;37.516;2022-08-02T01:44:00;23.85;;;17.08;;
63778;SDS011;49923;55.970;37.516;2022-08-02T01:46:28;27.35;;;17.75;;
63778;SDS011;49923;55.970;37.516;2022-08-02T01:48:56;25.35;;;18.02;;
63778;SDS011;49923;55.970;37.516;2022-08-02T01:51:26;29.52;;;17.27;;
63778;SDS011;49923;55.970;37.516;2022-08-02T01:54:13;27.08;;;18.25;;
63778;SDS011;49923;55.970;37.516;2022-08-02T01:56:42;35.75;;;18.20;;
63778;SDS011;49923;55.970;37.516;2022-08-02T01:59:13;29.75;;;18.02;;
63778;SDS011;49923;55.970;37.516;2022-08-02T02:01:41;29.40;;;18.35;;
63778;SDS011;49923;55.970;37.516;2022-08-02T02:04:08;29.75;;;18.42;;
63778;SDS011;49923;55.970;37.516;2022-08-02T02:06:37;22.50;;;15.38;;
63778;SDS011;49923;55.970;37.516;2022-08-02T02:09:05;27.65;;;17.20;;
63778;SDS011;49923;55.970;37.516;2022-08-02T02:11:32;28.95;;;17.25;;
63778;SDS011;49923;55.970;37.516;2022-08-02T02:13:59;25.63;;;16.98;;
63778;SDS011;49923;55.970;37.516;2022-08-02T02:16:27;22.55;;;15.00;;
63778;SDS011;49923;55.970;37.516;2022-08-02T02:18:54;22.48;;;14.95;;
63778;SDS011;49923;55.970;37.516;2022-08-02T02:21:21;22.17;;;14.32;;
63778;SDS011;49923;55.970;37.516;2022-08-02T02:23:47;22.42;;;15.68;;
63778;SDS011;49923;55.970;37.516;2022-08-02T02:26:14;21.73;;;15.00;;
63778;SDS011;49923;55.970;37.516;2022-08-02T02:28:42;23.10;;;14.75;;
63778;SDS011;49923;55.970;37.516;2022-08-02T02:31:13;21.52;;;15.13;;
63778;SDS011;49923;55.970;37.516;2022-08-02T02:33:49;20.75;;;14.75;;
63778;SDS011;49923;55.970;37.516;2022-08-02T02:36:20;21.63;;;14.35;;
63778;SDS011;49923;55.970;37.516;2022-08-02T02:38:47;19.95;;;14.07;;
63778;SDS011;49923;55.970;37.516;2022-08-02T02:41:16;21.38;;;14.18;;
63778;SDS011;49923;55.970;37.516;2022-08-02T02:43:43;19.58;;;14.77;;
63778;SDS011;49923;55.970;37.516;2022-08-02T02:46:11;20.25;;;14.07;;
63778;SDS011;49923;55.970;37.516;2022-08-02T02:48:38;19.50;;;13.95;;
63778;SDS011;49923;55.970;37.516;2022-08-02T02:51:05;20.70;;;13.05;;
63778;SDS011;49923;55.970;37.516;2022-08-02T02:53:33;19.25;;;13.40;;
63778;SDS011;49923;55.970;37.516;2022-08-02T02:56:00;21.33;;;13.82;;
63778;SDS011;49923;55.970;37.516;2022-08-02T02:58:27;22.55;;;13.15;;
63778;SDS011;49923;55.970;37.516;2022-08-02T03:00:53;15.25;;;11.55;;
63778;SDS011;49923;55.970;37.516;2022-08-02T03:03:38;14.00;;;11.48;;
63778;SDS011;49923;55.970;37.516;2022-08-02T03:06:05;17.42;;;12.43;;
63778;SDS011;49923;55.970;37.516;2022-08-02T03:08:31;19.63;;;12.45;;
63778;SDS011;49923;55.970;37.516;2022-08-02T03:10:57;17.10;;;12.10;;
63778;SDS011;49923;55.970;37.516;2022-08-02T03:13:24;21.15;;;12.38;;
63778;SDS011;49923;55.970;37.516;2022-08-02T03:15:51;16.80;;;12.00;;
63778;SDS011;49923;55.970;37.516;2022-08-02T03:18:29;20.15;;;12.35;;
63778;SDS011;49923;55.970;37.516;2022-08-02T03:20:59;18.67;;;12.88;;
63778;SDS011;49923;55.970;37.516;2022-08-02T03:23:30;14.82;;;11.63;;
63778;SDS011;49923;55.970;37.516;2022-08-02T03:25:57;17.13;;;12.63;;
63778;SDS011;49923;55.970;37.516;2022-08-02T03:28:23;23.35;;;12.98;;
63778;SDS011;49923;55.970;37.516;2022-08-02T03:30:49;18.77;;;12.85;;
63778;SDS011;49923;55.970;37.516;2022-08-02T03:33:16;19.55;;;13.40;;
63778;SDS011;49923;55.970;37.516;2022-08-02T03:35:43;18.13;;;14.60;;
63778;SDS011;49923;55.970;37.516;2022-08-02T03:38:12;20.33;;;15.05;;
63778;SDS011;49923;55.970;37.516;2022-08-02T03:40:40;30.00;;;18.65;;
63778;SDS011;49923;55.970;37.516;2022-08-02T03:43:08;30.30;;;20.90;;
63778;SDS011;49923;55.970;37.516;2022-08-02T03:45:38;28.95;;;18.55;;
63778;SDS011;49923;55.970;37.516;2022-08-02T03:48:08;24.10;;;16.15;;
63778;SDS011;49923;55.970;37.516;2022-08-02T03:50:36;20.13;;;14.35;;
63778;SDS011;49923;55.970;37.516;2022-08-02T03:53:04;25.50;;;15.60;;
63778;SDS011;49923;55.970;37.516;2022-08-02T03:55:30;23.83;;;14.55;;
63778;SDS011;49923;55.970;37.516;2022-08-02T03:57:58;26.88;;;16.02;;
63778;SDS011;49923;55.970;37.516;2022-08-02T04:00:24;22.73;;;15.60;;
63778;SDS011;49923;55.970;37.516;2022-08-02T04:02:51;23.88;;;15.55;;
63778;SDS011;49923;55.970;37.516;2022-08-02T04:05:17;26.60;;;15.65;;
63778;SDS011;49923;55.970;37.516;2022-08-02T04:07:44;25.02;;;15.80;;
63778;SDS011;49923;55.970;37.516;2022-08-02T04:10:10;24.95;;;15.27;;
63778;SDS011;49923;55.970;37.516;2022-08-02T04:12:36;26.17;;;15.10;;
63778;SDS011;49923;55.970;37.516;2022-08-02T04:15:03;25.83;;;15.57;;
63778;SDS011;49923;55.970;37.516;2022-08-02T04:17:31;22.02;;;15.15;;
63778;SDS011;49923;55.970;37.516;2022-08-02T04:20:06;28.23;;;15.15;;
63778;SDS011;49923;55.970;37.516;2022-08-02T04:22:43;28.10;;;15.73;;
63778;SDS011;49923;55.970;37.516;2022-08-02T04:25:13;26.42;;;15.20;;
63778;SDS011;49923;55.970;37.516;2022-08-02T04:27:40;29.02;;;16.08;;
63778;SDS011;49923;55.970;37.516;2022-08-02T04:30:07;25.58;;;15.57;;
63778;SDS011;49923;55.970;37.516;2022-08-02T04:32:34;26.20;;;15.00;;
63778;SDS011;49923;55.970;37.516;2022-08-02T04:35:01;28.40;;;15.70;;
63778;SDS011;49923;55.970;37.516;2022-08-02T04:37:27;27.00;;;14.75;;
63778;SDS011;49923;55.970;37.516;2022-08-02T04:39:54;25.25;;;15.35;;
63778;SDS011;49923;55.970;37.516;2022-08-02T04:42:20;27.75;;;14.35;;
63778;SDS011;49923;55.970;37.516;2022-08-02T04:44:50;20.98;;;15.07;;
63778;SDS011;49923;55.970;37.516;2022-08-02T04:47:20;22.10;;;14.27;;
63778;SDS011;49923;55.970;37.516;2022-08-02T04:49:46;24.50;;;14.63;;
63778;SDS011;49923;55.970;37.516;2022-08-02T04:52:13;28.30;;;14.30;;
63778;SDS011;49923;55.970;37.516;2022-08-02T04:54:39;24.05;;;13.65;;
63778;SDS011;49923;55.970;37.516;2022-08-02T04:57:04;26.40;;;13.65;;
63778;SDS011;49923;55.970;37.516;2022-08-02T04:59:50;29.10;;;14.07;;
63778;SDS011;49923;55.970;37.516;2022-08-02T05:02:16;24.77;;;13.95;;
63778;SDS011;49923;55.970;37.516;2022-08-02T05:04:42;20.27;;;12.93;;
63778;SDS011;49923;55.970;37.516;2022-08-02T05:07:08;22.70;;;12.90;;
63778;SDS011;49923;55.970;37.516;2022-08-02T05:09:34;22.70;;;13.32;;
63778;SDS011;49923;55.970;37.516;2022-08-02T05:12:00;24.02;;;12.70;;
63778;SDS011;49923;55.970;37.516;2022-08-02T05:14:25;21.10;;;12.77;;
63778;SDS011;49923;55.970;37.516;2022-08-02T05:16:51;22.17;;;12.80;;
63778;SDS011;49923;55.970;37.516;2022-08-02T05:19:17;24.38;;;12.98;;
63778;SDS011;49923;55.970;37.516;2022-08-02T05:21:43;23.70;;;11.77;;
63778;SDS011;49923;55.970;37.516;2022-08-02T05:24:09;22.05;;;12.73;;
63778;SDS011;49923;55.970;37.516;2022-08-02T05:26:35;21.48;;;12.20;;
63778;SDS011;49923;55.970;37.516;2022-08-02T05:29:01;22.85;;;12.88;;
63778;SDS011;49923;55.970;37.516;2022-08-02T05:31:29;21.23;;;11.52;;
63778;SDS011;49923;55.970;37.516;2022-08-02T05:33:55;17.75;;;11.55;;
63778;SDS011;49923;55.970;37.516;2022-08-02T05:36:21;23.95;;;12.45;;
63778;SDS011;49923;55.970;37.516;2022-08-02T05:38:47;18.40;;;11.50;;
63778;SDS011;49923;55.970;37.516;2022-08-02T05:41:16;21.38;;;11.57;;
63778;SDS011;49923;55.970;37.516;2022-08-02T05:43:43;21.40;;;11.75;;
63778;SDS011;49923;55.970;37.516;2022-08-02T05:46:09;25.88;;;13.90;;
63778;SDS011;49923;55.970;37.516;2022-08-02T05:48:35;21.35;;;11.75;;
63778;SDS011;49923;55.970;37.516;2022-08-02T05:51:02;19.77;;;11.40;;
63778;SDS011;49923;55.970;37.516;2022-08-02T05:53:35;19.23;;;11.18;;
63778;SDS011;49923;55.970;37.516;2022-08-02T05:58:52;21.95;;;11.88;;
63778;SDS011;49923;55.970;37.516;2022-08-02T06:01:32;16.42;;;10.18;;
63778;SDS011;49923;55.970;37.516;2022-08-02T06:04:02;15.65;;;8.90;;
63778;SDS011;49923;55.970;37.516;2022-08-02T06:06:31;22.05;;;10.98;;
63778;SDS011;49923;55.970;37.516;2022-08-02T06:08:59;16.23;;;9.45;;
63778;SDS011;49923;55.970;37.516;2022-08-02T06:11:37;17.77;;;9.02;;
63778;SDS011;49923;55.970;37.516;2022-08-02T06:14:08;21.85;;;9.88;;
63778;SDS011;49923;55.970;37.516;2022-08-02T06:16:35;21.05;;;9.30;;
63778;SDS011;49923;55.970;37.516;2022-08-02T06:19:02;19.27;;;11.65;;
63778;SDS011;49923;55.970;37.516;2022-08-02T06:21:29;19.13;;;9.55;;
63778;SDS011;49923;55.970;37.516;2022-08-02T06:23:56;21.45;;;9.98;;
63778;SDS011;49923;55.970;37.516;2022-08-02T06:26:24;15.48;;;8.90;;
63778;SDS011;49923;55.970;37.516;2022-08-02T06:28:54;18.63;;;9.50;;
63778;SDS011;49923;55.970;37.516;2022-08-02T06:31:21;18.85;;;9.68;;
63778;SDS011;49923;55.970;37.516;2022-08-02T06:33:48;16.00;;;7.93;;
63778;SDS011;49923;55.970;37.516;2022-08-02T06:39:26;11.85;;;7.53;;
63778;SDS011;49923;55.970;37.516;2022-08-02T06:41:58;22.47;;;8.40;;
63778;SDS011;49923;55.970;37.516;2022-08-02T06:44:28;16.80;;;9.05;;
63778;SDS011;49923;55.970;37.516;2022-08-02T06:46:54;16.25;;;8.52;;
63778;SDS011;49923;55.970;37.516;2022-08-02T06:49:20;25.88;;;9.13;;
63778;SDS011;49923;55.970;37.516;2022-08-02T06:51:46;19.90;;;7.60;;
63778;SDS011;49923;55.970;37.516;2022-08-02T06:54:12;16.55;;;7.53;;
63778;SDS011;49923;55.970;37.516;2022-08-02T06:56:41;13.65;;;6.95;;
63778;SDS011;49923;55.970;37.516;2022-08-02T06:59:07;13.63;;;6.80;;
63778;SDS011;49923;55.970;37.516;2022-08-02T07:01:33;11.45;;;7.32;;
63778;SDS011;49923;55.970;37.516;2022-08-02T07:03:59;19.05;;;7.35;;
63778;SDS011;49923;55.970;37.516;2022-08-02T07:06:24;29.27;;;9.02;;
63778;SDS011;49923;55.970;37.516;2022-08-02T07:08:50;28.10;;;8.68;;
63778;SDS011;49923;55.970;37.516;2022-08-02T07:11:16;22.13;;;8.40;;
63778;SDS011;49923;55.970;37.516;2022-08-02T07:13:43;20.20;;;7.63;;
63778;SDS011;49923;55.970;37.516;2022-08-02T07:16:09;21.00;;;8.10;;
63778;SDS011;49923;55.970;37.516;2022-08-02T07:18:35;19.20;;;7.30;;
63778;SDS011;49923;55.970;37.516;2022-08-02T07:21:02;11.98;;;6.70;;
63778;SDS011;49923;55.970;37.516;2022-08-02T07:23:30;11.57;;;6.90;;
63778;SDS011;49923;55.970;37.516;2022-08-02T07:25:57;17.30;;;7.63;;
63778;SDS011;49923;55.970;37.516;2022-08-02T07:28:23;14.52;;;6.90;;
63778;SDS011;49923;55.970;37.516;2022-08-02T07:30:49;12.35;;;6.82;;
63778;SDS011;49923;55.970;37.516;2022-08-02T07:33:15;13.02;;;7.53;;
63778;SDS011;49923;55.970;37.516;2022-08-02T07:35:40;11.18;;;7.40;;
63778;SDS011;49923;55.970;37.516;2022-08-02T07:38:06;17.27;;;7.78;;
63778;SDS011;49923;55.970;37.516;2022-08-02T07:40:32;15.05;;;7.60;;
63778;SDS011;49923;55.970;37.516;2022-08-02T07:42:59;16.23;;;7.38;;
63778;SDS011;49923;55.970;37.516;2022-08-02T07:45:25;12.32;;;6.15;;
63778;SDS011;49923;55.970;37.516;2022-08-02T07:47:52;14.10;;;5.93;;
63778;SDS011;49923;55.970;37.516;2022-08-02T07:50:18;15.13;;;6.78;;
63778;SDS011;49923;55.970;37.516;2022-08-02T07:52:45;9.15;;;5.65;;
63778;SDS011;49923;55.970;37.516;2022-08-02T07:55:12;13.00;;;5.82;;
63778;SDS011;49923;55.970;37.516;2022-08-02T07:57:39;11.65;;;4.70;;
63778;SDS011;49923;55.970;37.516;2022-08-02T08:00:07;11.73;;;5.95;;
63778;SDS011;49923;55.970;37.516;2022-08-02T08:02:36;8.00;;;5.30;;
63778;SDS011;49923;55.970;37.516;2022-08-02T08:05:02;8.20;;;4.50;;
63778;SDS011;49923;55.970;37.516;2022-08-02T08:07:29;7.88;;;4.88;;
63778;SDS011;49923;55.970;37.516;2022-08-02T08:09:55;9.57;;;5.15;;
63778;SDS011;49923;55.970;37.516;2022-08-02T08:12:21;7.60;;;4.45;;
63778;SDS011;49923;55.970;37.516;2022-08-02T08:14:47;17.25;;;4.88;;
63778;SDS011;49923;55.970;37.516;2022-08-02T08:17:13;6.68;;;4.57;;
63778;SDS011;49923;55.970;37.516;2022-08-02T08:19:39;9.27;;;4.57;;
63778;SDS011;49923;55.970;37.516;2022-08-02T08:22:05;13.25;;;5.15;;
63778;SDS011;49923;55.970;37.516;2022-08-02T08:24:31;9.93;;;4.53;;
63778;SDS011;49923;55.970;37.516;2022-08-02T08:26:57;8.65;;;4.78;;
63778;SDS011;49923;55.970;37.516;2022-08-02T08:29:23;9.10;;;4.75;;
63778;SDS011;49923;55.970;37.516;2022-08-02T08:31:50;9.02;;;4.55;;
63778;SDS011;49923;55.970;37.516;2022-08-02T08:34:16;10.10;;;5.18;;
63778;SDS011;49923;55.970;37.516;2022-08-02T08:36:42;11.00;;;5.35;;
63778;SDS011;49923;55.970;37.516;2022-08-02T08:39:08;14.15;;;4.88;;
63778;SDS011;49923;55.970;37.516;2022-08-02T08:41:35;8.07;;;4.80;;
63778;SDS011;49923;55.970;37.516;2022-08-02T08:44:01;10.48;;;4.70;;
63778;SDS011;49923;55.970;37.516;2022-08-02T08:46:30;10.25;;;5.30;;
63778;SDS011;49923;55.970;37.516;2022-08-02T08:48:59;12.13;;;5.43;;
63778;SDS011;49923;55.970;37.516;2022-08-02T08:51:35;8.52;;;5.47;;
63778;SDS011;49923;55.970;37.516;2022-08-02T08:54:03;10.60;;;6.00;;
63778;SDS011;49923;55.970;37.516;2022-08-02T08:56:33;10.35;;;5.53;;
63778;SDS011;49923;55.970;37.516;2022-08-02T08:59:00;11.07;;;5.97;;
63778;SDS011;49923;55.970;37.516;2022-08-02T09:01:28;10.98;;;5.00;;
63778;SDS011;49923;55.970;37.516;2022-08-02T09:03:54;13.45;;;5.50;;
63778;SDS011;49923;55.970;37.516;2022-08-02T09:06:20;8.77;;;5.18;;
63778;SDS011;49923;55.970;37.516;2022-08-02T09:08:46;9.82;;;5.85;;
63778;SDS011;49923;55.970;37.516;2022-08-02T09:11:13;16.58;;;6.13;;
63778;SDS011;49923;55.970;37.516;2022-08-02T09:13:50;23.58;;;10.23;;
63778;SDS011;49923;55.970;37.516;2022-08-02T09:16:37;36.70;;;7.55;;
63778;SDS011;49923;55.970;37.516;2022-08-02T09:19:15;29.83;;;7.25;;
63778;SDS011;49923;55.970;37.516;2022-08-02T09:21:43;31.75;;;6.88;;
63778;SDS011;49923;55.970;37.516;2022-08-02T09:24:15;10.02;;;5.18;;
63778;SDS011;49923;55.970;37.516;2022-08-02T09:26:43;12.25;;;5.30;;
63778;SDS011;49923;55.970;37.516;2022-08-02T09:29:09;8.52;;;4.78;;
63778;SDS011;49923;55.970;37.516;2022-08-02T09:31:36;14.15;;;7.43;;
63778;SDS011;49923;55.970;37.516;2022-08-02T09:34:02;13.60;;;8.02;;
63778;SDS011;49923;55.970;37.516;2022-08-02T09:36:35;12.27;;;6.85;;
63778;SDS011;49923;55.970;37.516;2022-08-02T09:39:04;9.98;;;5.30;;
63778;SDS011;49923;55.970;37.516;2022-08-02T09:41:33;12.50;;;5.85;;
63778;SDS011;49923;55.970;37.516;2022-08-02T09:44:01;7.80;;;5.18;;
63778;SDS011;49923;55.970;37.516;2022-08-02T09:46:30;7.75;;;5.30;;
63778;SDS011;49923;55.970;37.516;2022-08-02T09:48:58;9.05;;;5.15;;
63778;SDS011;49923;55.970;37.516;2022-08-02T09:53:53;6.88;;;5.20;;
63778;SDS011;49923;55.970;37.516;2022-08-02T09:56:25;14.52;;;5.28;;
63778;SDS011;49923;55.970;37.516;2022-08-02T09:58:52;13.93;;;5.57;;
63778;SDS011;49923;55.970;37.516;2022-08-02T10:01:29;10.23;;;5.57;;
63778;SDS011;49923;55.970;37.516;2022-08-02T10:03:57;8.95;;;5.75;;
63778;SDS011;49923;55.970;37.516;2022-08-02T10:06:28;8.63;;;5.22;;
63778;SDS011;49923;55.970;37.516;2022-08-02T10:08:55;11.35;;;5.85;;
63778;SDS011;49923;55.970;37.516;2022-08-02T10:11:22;9.18;;;5.45;;
63778;SDS011;49923;55.970;37.516;2022-08-02T10:13:49;8.25;;;5.47;;
63778;SDS011;49923;55.970;37.516;2022-08-02T10:16:16;9.50;;;6.00;;
63778;SDS011;49923;55.970;37.516;2022-08-02T10:18:47;6.65;;;5.05;;
63778;SDS011;49923;55.970;37.516;2022-08-02T10:21:19;10.25;;;5.80;;
63778;SDS011;49923;55.970;37.516;2022-08-02T10:24:43;7.40;;;4.83;;
63778;SDS011;49923;55.970;37.516;2022-08-02T10:26:48;9.07;;;6.32;;
63778;SDS011;49923;55.970;37.516;2022-08-02T10:29:18;10.68;;;6.18;;
63778;SDS011;49923;55.970;37.516;2022-08-02T10:32:05;12.07;;;8.00;;
63778;SDS011;49923;55.970;37.516;2022-08-02T10:34:35;11.82;;;7.93;;
63778;SDS011;49923;55.970;37.516;2022-08-02T10:37:05;9.77;;;6.95;;
63778;SDS011;49923;55.970;37.516;2022-08-02T10:39:39;17.88;;;11.30;;
63778;SDS011;49923;55.970;37.516;2022-08-02T10:42:07;12.38;;;9.82;;
63778;SDS011;49923;55.970;37.516;2022-08-02T10:44:33;13.07;;;8.38;;
63778;SDS011;49923;55.970;37.516;2022-08-02T10:49:49;11.13;;;6.95;;
63778;SDS011;49923;55.970;37.516;2022-08-02T10:57:28;9.65;;;6.32;;
63778;SDS011;49923;55.970;37.516;2022-08-02T10:59:57;13.13;;;5.95;;
63778;SDS011;49923;55.970;37.516;2022-08-02T11:02:36;13.18;;;5.57;;
63778;SDS011;49923;55.970;37.516;2022-08-02T11:15:53;14.02;;;6.22;;
63778;SDS011;49923;55.970;37.516;2022-08-02T11:19:01;9.43;;;6.07;;
63778;SDS011;49923;55.970;37.516;2022-08-02T11:21:24;14.85;;;6.53;;
63778;SDS011;49923;55.970;37.516;2022-08-02T11:23:55;8.15;;;5.80;;
63778;SDS011;49923;55.970;37.516;2022-08-02T11:29:03;10.98;;;6.25;;
63778;SDS011;49923;55.970;37.516;2022-08-02T11:31:37;9.73;;;6.57;;
63778;SDS011;49923;55.970;37.516;2022-08-02T11:34:06;9.55;;;6.13;;
63778;SDS011;49923;55.970;37.516;2022-08-02T11:36:41;11.48;;;5.95;;
63778;SDS011;49923;55.970;37.516;2022-08-02T11:39:12;8.73;;;6.50;;
63778;SDS011;49923;55.970;37.516;2022-08-02T11:41:42;9.27;;;6.20;;
63778;SDS011;49923;55.970;37.516;2022-08-02T11:44:13;8.65;;;5.88;;
63778;SDS011;49923;55.970;37.516;2022-08-02T11:46:40;9.93;;;6.63;;
63778;SDS011;49923;55.970;37.516;2022-08-02T11:49:15;9.95;;;6.28;;
63778;SDS011;49923;55.970;37.516;2022-08-02T11:54:24;10.45;;;6.32;;
63778;SDS011;49923;55.970;37.516;2022-08-02T11:56:52;9.68;;;6.50;;
63778;SDS011;49923;55.970;37.516;2022-08-02T11:59:18;7.22;;;5.97;;
63778;SDS011;49923;55.970;37.516;2022-08-02T12:01:44;12.30;;;6.53;;
63778;SDS011;49923;55.970;37.516;2022-08-02T12:04:10;10.52;;;6.35;;
63778;SDS011;49923;55.970;37.516;2022-08-02T12:06:40;10.02;;;6.82;;
63778;SDS011;49923;55.970;37.516;2022-08-02T12:09:10;13.55;;;6.85;;
63778;SDS011;49923;55.970;37.516;2022-08-02T12:11:37;11.68;;;6.40;;
63778;SDS011;49923;55.970;37.516;2022-08-02T12:14:04;10.32;;;6.38;;
63778;SDS011;49923;55.970;37.516;2022-08-02T12:16:34;10.63;;;7.55;;
63778;SDS011;49923;55.970;37.516;2022-08-02T12:19:21;11.27;;;6.57;;
63778;SDS011;49923;55.970;37.516;2022-08-02T12:24:51;8.85;;;6.15;;
63778;SDS011;49923;55.970;37.516;2022-08-02T12:27:32;12.18;;;6.20;;
63778;SDS011;49923;55.970;37.516;2022-08-02T12:32:36;12.02;;;6.25;;
63778;SDS011;49923;55.970;37.516;2022-08-02T12:37:40;9.65;;;5.95;;
63778;SDS011;49923;55.970;37.516;2022-08-02T12:40:17;9.30;;;6.38;;
63778;SDS011;49923;55.970;37.516;2022-08-02T12:42:57;18.65;;;6.60;;
63778;SDS011;49923;55.970;37.516;2022-08-02T12:45:26;8.75;;;5.80;;
63778;SDS011;49923;55.970;37.516;2022-08-02T12:47:54;10.55;;;6.38;;
63778;SDS011;49923;55.970;37.516;2022-08-02T12:53:25;8.05;;;6.07;;
63778;SDS011;49923;55.970;37.516;2022-08-02T12:55:56;12.15;;;6.80;;
63778;SDS011;49923;55.970;37.516;2022-08-02T12:58:22;9.40;;;6.03;;
63778;SDS011;49923;55.970;37.516;2022-08-02T13:00:52;8.32;;;6.05;;
63778;SDS011;49923;55.970;37.516;2022-08-02T13:03:20;10.18;;;6.35;;
63778;SDS011;49923;55.970;37.516;2022-08-02T13:05:46;13.27;;;6.88;;
63778;SDS011;49923;55.970;37.516;2022-08-02T13:08:12;11.60;;;7.78;;
63778;SDS011;49923;55.970;37.516;2022-08-02T13:10:39;12.07;;;6.50;;
63778;SDS011;49923;55.970;37.516;2022-08-02T13:13:05;11.43;;;6.22;;
63778;SDS011;49923;55.970;37.516;2022-08-02T13:15:31;15.52;;;6.68;;
63778;SDS011;49923;55.970;37.516;2022-08-02T13:17:57;10.73;;;6.90;;
63778;SDS011;49923;55.970;37.516;2022-08-02T13:20:26;14.20;;;6.38;;
63778;SDS011;49923;55.970;37.516;2022-08-02T13:22:53;9.60;;;6.10;;
63778;SDS011;49923;55.970;37.516;2022-08-02T13:25:19;11.25;;;5.85;;
63778;SDS011;49923;55.970;37.516;2022-08-02T13:27:47;11.38;;;5.85;;
63778;SDS011;49923;55.970;37.516;2022-08-02T13:30:14;12.65;;;6.55;;
63778;SDS011;49923;55.970;37.516;2022-08-02T13:32:40;9.50;;;5.68;;
63778;SDS011;49923;55.970;37.516;2022-08-02T13:35:06;8.93;;;5.63;;
63778;SDS011;49923;55.970;37.516;2022-08-02T13:37:34;12.15;;;5.72;;
63778;SDS011;49923;55.970;37.516;2022-08-02T13:40:01;9.80;;;5.25;;
63778;SDS011;49923;55.970;37.516;2022-08-02T13:42:27;10.90;;;6.28;;
63778;SDS011;49923;55.970;37.516;2022-08-02T13:44:53;8.48;;;5.30;;
63778;SDS011;49923;55.970;37.516;2022-08-02T13:47:19;8.63;;;5.78;;
63778;SDS011;49923;55.970;37.516;2022-08-02T13:49:45;11.63;;;5.72;;
63778;SDS011;49923;55.970;37.516;2022-08-02T13:52:11;8.85;;;6.30;;
63778;SDS011;49923;55.970;37.516;2022-08-02T13:54:37;8.90;;;5.50;;
63778;SDS011;49923;55.970;37.516;2022-08-02T13:57:03;8.07;;;5.40;;
63778;SDS011;49923;55.970;37.516;2022-08-02T13:59:29;9.20;;;5.10;;
63778;SDS011;49923;55.970;37.516;2022-08-02T14:01:55;20.98;;;17.42;;
63778;SDS011;49923;55.970;37.516;2022-08-02T14:04:23;8.35;;;6.03;;
63778;SDS011;49923;55.970;37.516;2022-08-02T14:06:49;8.90;;;5.82;;
63778;SDS011;49923;55.970;37.516;2022-08-02T14:09:16;10.68;;;6.63;;
63778;SDS011;49923;55.970;37.516;2022-08-02T14:11:42;6.82;;;5.03;;
63778;SDS011;49923;55.970;37.516;2022-08-02T14:14:08;7.30;;;4.78;;
63778;SDS011;49923;55.970;37.516;2022-08-02T14:16:34;7.95;;;5.65;;
63778;SDS011;49923;55.970;37.516;2022-08-02T14:19:00;10.32;;;5.88;;
63778;SDS011;49923;55.970;37.516;2022-08-02T14:21:26;8.38;;;5.45;;
63778;SDS011;49923;55.970;37.516;2022-08-02T14:23:52;8.73;;;5.65;;
63778;SDS011;49923;55.970;37.516;2022-08-02T14:26:18;11.70;;;5.65;;
63778;SDS011;49923;55.970;37.516;2022-08-02T14:28:44;8.20;;;5.55;;
63778;SDS011;49923;55.970;37.516;2022-08-02T14:31:10;7.75;;;5.70;;
63778;SDS011;49923;55.970;37.516;2022-08-02T14:33:36;16.95;;;9.90;;
63778;SDS011;49923;55.970;37.516;2022-08-02T14:36:02;8.43;;;4.88;;
63778;SDS011;49923;55.970;37.516;2022-08-02T14:38:29;12.43;;;6.10;;
63778;SDS011;49923;55.970;37.516;2022-08-02T14:40:57;14.20;;;7.25;;
63778;SDS011;49923;55.970;37.516;2022-08-02T14:43:23;15.05;;;7.88;;
63778;SDS011;49923;55.970;37.516;2022-08-02T14:46:07;12.23;;;6.97;;
63778;SDS011;49923;55.970;37.516;2022-08-02T14:48:33;9.57;;;5.72;;
63778;SDS011;49923;55.970;37.516;2022-08-02T14:50:59;10.95;;;5.35;;
63778;SDS011;49923;55.970;37.516;2022-08-02T14:53:25;12.13;;;5.57;;
63778;SDS011;49923;55.970;37.516;2022-08-02T14:55:51;8.15;;;5.18;;
63778;SDS011;49923;55.970;37.516;2022-08-02T14:58:17;13.75;;;7.00;;
63778;SDS011;49923;55.970;37.516;2022-08-02T15:00:43;11.50;;;5.43;;
63778;SDS011;49923;55.970;37.516;2022-08-02T15:03:09;9.73;;;5.57;;
63778;SDS011;49923;55.970;37.516;2022-08-02T15:05:36;12.05;;;5.30;;
63778;SDS011;49923;55.970;37.516;2022-08-02T15:08:03;10.43;;;4.80;;
63778;SDS011;49923;55.970;37.516;2022-08-02T15:10:29;8.45;;;5.07;;
63778;SDS011;49923;55.970;37.516;2022-08-02T15:12:55;12.02;;;4.90;;
63778;SDS011;49923;55.970;37.516;2022-08-02T15:15:21;8.98;;;5.13;;
63778;SDS011;49923;55.970;37.516;2022-08-02T15:17:50;12.73;;;4.85;;
63778;SDS011;49923;55.970;37.516;2022-08-02T15:20:16;10.60;;;5.70;;